Time;durP1;ratioP1;P1;durP2;ratioP2;P2;SDS_P1;SDS_P2;PMS_P1;PMS_P2;Temp;Humidity;BMP_temperature;BMP_pressure;BME280_temperature;BME280_humidity;BME280_pressure;Samples;Min_cycle;Max_cycle;Signal;HPM_P1;HPM_P2
2021/07/16 00:01:54;;;;;;;18.55;7.85;;;16.60;99.90;;;;;;5091926;28;20060;-80
2021/07/16 00:04:20;;;;;;;17.05;7.55;;;16.50;99.90;;;;;;5114638;28;20046;-80
2021/07/16 00:06:48;;;;;;;17.88;7.55;;;16.60;99.90;;;;;;5092767;28;21746;-80
2021/07/16 00:09:14;;;;;;;21.70;8.00;;;16.60;99.90;;;;;;5091571;28;20040;-80
2021/07/16 00:11:40;;;;;;;;;;;16.50;99.90;;;;;;5107783;28;20093;-79
2021/07/16 00:14:06;;;;;;;12.57;7.25;;;16.50;99.90;;;;;;5090113;28;19919;-80
2021/07/16 00:16:32;;;;;;;18.33;7.00;;;16.50;99.90;;;;;;5109558;28;20032;-80
2021/07/16 00:18:59;;;;;;;18.50;6.47;;;16.50;99.90;;;;;;5108689;28;20039;-80
2021/07/16 00:21:24;;;;;;;18.98;7.25;;;16.50;99.90;;;;;;5103975;28;20044;-81
2021/07/16 00:23:51;;;;;;;15.38;7.35;;;16.40;99.90;;;;;;5109710;28;20092;-80
2021/07/16 00:26:17;;;;;;;20.48;6.93;;;16.50;99.90;;;;;;5107906;28;20040;-80
2021/07/16 00:28:43;;;;;;;20.60;7.07;;;16.40;99.90;;;;;;5102571;28;20530;-80
2021/07/16 00:31:10;;;;;;;17.60;6.50;;;16.40;99.90;;;;;;5105578;28;20492;-80
2021/07/16 00:33:36;;;;;;;16.83;6.03;;;16.40;99.90;;;;;;5084840;28;20043;-79
2021/07/16 00:36:03;;;;;;;18.35;6.55;;;16.40;99.90;;;;;;5076225;28;20076;-80
2021/07/16 00:38:29;;;;;;;14.73;6.40;;;16.40;99.90;;;;;;5107851;28;20370;-79
2021/07/16 00:40:55;;;;;;;19.40;7.03;;;16.40;99.90;;;;;;5089319;28;20047;-79
2021/07/16 00:43:21;;;;;;;14.57;6.30;;;16.30;99.90;;;;;;5111427;28;20085;-80
2021/07/16 00:45:47;;;;;;;;;;;16.40;99.90;;;;;;5094414;28;20559;-79
2021/07/16 00:48:13;;;;;;;14.52;6.40;;;16.40;99.90;;;;;;5100831;28;19916;-79
2021/07/16 00:50:39;;;;;;;;;;;16.30;99.90;;;;;;5104287;28;20035;-78
2021/07/16 00:53:09;;;;;;;14.50;6.10;;;16.30;99.90;;;;;;5093941;28;19959;-80
2021/07/16 00:55:37;;;;;;;18.05;6.28;;;16.30;99.90;;;;;;5110772;28;20504;-79
2021/07/16 00:58:04;;;;;;;17.90;6.00;;;16.30;99.90;;;;;;5107929;28;20110;-80
2021/07/16 01:00:30;;;;;;;10.55;5.25;;;16.30;99.90;;;;;;5084835;28;20132;-80
2021/07/16 01:02:55;;;;;;;;;;;16.30;99.90;;;;;;5113104;28;20036;-79
2021/07/16 01:05:22;;;;;;;18.35;6.65;;;16.30;99.90;;;;;;5069278;28;19939;-79
2021/07/16 01:07:51;;;;;;;15.68;6.00;;;16.30;99.90;;;;;;5094712;28;20032;-79
2021/07/16 01:10:19;;;;;;;17.90;6.38;;;16.30;99.90;;;;;;5107240;28;20075;-82
2021/07/16 01:12:45;;;;;;;12.27;5.90;;;16.30;99.90;;;;;;5096033;28;20054;-82
2021/07/16 01:15:16;;;;;;;14.68;5.75;;;16.30;99.90;;;;;;5112044;28;20039;-82
2021/07/16 01:17:43;;;;;;;15.45;5.88;;;16.30;99.90;;;;;;5111823;28;20035;-82
2021/07/16 01:20:10;;;;;;;14.63;6.55;;;16.30;99.90;;;;;;5102114;28;20031;-82
2021/07/16 01:22:38;;;;;;;17.33;5.65;;;16.30;99.90;;;;;;5108181;28;20095;-80
2021/07/16 01:25:09;;;;;;;17.00;6.32;;;16.30;99.90;;;;;;5111515;28;20177;-80
2021/07/16 01:27:35;;;;;;;17.05;6.30;;;16.30;99.90;;;;;;5112993;28;20036;-80
2021/07/16 01:30:05;;;;;;;17.88;6.07;;;16.30;99.90;;;;;;5108529;28;20040;-80
2021/07/16 01:32:32;;;;;;;28.98;6.57;;;16.30;99.90;;;;;;5099621;28;20065;-79
2021/07/16 01:34:57;;;;;;;;;;;16.30;99.90;;;;;;5113181;28;20473;-80
2021/07/16 01:37:23;;;;;;;16.48;7.07;;;16.30;99.90;;;;;;5072289;28;20006;-80
2021/07/16 01:39:49;;;;;;;13.90;6.18;;;16.30;99.90;;;;;;5085584;28;20198;-80
2021/07/16 01:42:16;;;;;;;;;;;16.30;99.90;;;;;;5075796;28;20031;-79
2021/07/16 01:44:43;;;;;;;14.75;5.85;;;16.20;99.90;;;;;;5105347;28;19916;-81
2021/07/16 01:47:10;;;;;;;18.77;6.25;;;16.20;99.90;;;;;;5109673;28;20027;-81
2021/07/16 01:49:36;;;;;;;20.27;6.55;;;16.30;99.90;;;;;;5106344;28;20092;-80
2021/07/16 01:52:02;;;;;;;16.45;6.28;;;16.30;99.90;;;;;;5104349;28;20040;-79
2021/07/16 01:54:28;;;;;;;16.13;5.95;;;16.20;99.90;;;;;;5094260;28;20040;-80
2021/07/16 01:56:54;;;;;;;16.00;5.50;;;16.20;99.90;;;;;;5111049;28;20051;-80
2021/07/16 01:59:20;;;;;;;17.75;6.38;;;16.20;99.90;;;;;;5094285;28;20062;-79
2021/07/16 02:01:46;;;;;;;12.75;5.82;;;16.30;99.90;;;;;;5108375;28;20040;-80
2021/07/16 02:04:12;;;;;;;13.65;5.32;;;16.20;99.90;;;;;;5112527;28;20036;-80
2021/07/16 02:06:38;;;;;;;;;;;16.30;99.90;;;;;;5088431;28;20613;-80
2021/07/16 02:09:06;;;;;;;16.92;5.97;;;16.30;99.90;;;;;;5108319;28;19919;-81
2021/07/16 02:11:33;;;;;;;20.55;6.70;;;16.30;99.90;;;;;;5093273;28;20061;-80
2021/07/16 02:14:00;;;;;;;18.77;6.35;;;16.20;99.90;;;;;;5079791;28;20400;-80
2021/07/16 02:16:27;;;;;;;20.75;6.57;;;16.20;99.90;;;;;;5108302;28;20156;-80
2021/07/16 02:18:56;;;;;;;17.55;6.75;;;16.20;99.90;;;;;;5110082;28;20122;-79
2021/07/16 02:21:22;;;;;;;26.27;6.63;;;16.20;99.90;;;;;;5112539;28;20056;-79
2021/07/16 02:23:48;;;;;;;;;;;16.30;99.90;;;;;;5084450;28;20481;-80
2021/07/16 02:26:14;;;;;;;17.45;6.18;;;16.20;99.90;;;;;;5071827;28;19915;-80
2021/07/16 02:28:41;;;;;;;13.82;5.80;;;16.30;99.90;;;;;;5109190;28;20373;-80
2021/07/16 02:31:11;;;;;;;17.10;6.03;;;16.30;99.90;;;;;;5085926;28;20131;-80
2021/07/16 02:33:38;;;;;;;19.77;6.32;;;16.30;99.90;;;;;;5092306;28;20072;-80
2021/07/16 02:36:06;;;;;;;22.13;6.60;;;16.20;99.90;;;;;;5101263;28;20040;-80
2021/07/16 02:38:32;;;;;;;18.27;6.10;;;16.30;99.90;;;;;;5074746;28;20048;-78
2021/07/16 02:40:58;;;;;;;16.63;6.43;;;16.30;99.90;;;;;;5105377;28;20036;-80
2021/07/16 02:43:24;;;;;;;15.65;5.80;;;16.30;99.90;;;;;;5105716;28;20063;-80
2021/07/16 02:45:50;;;;;;;;;;;16.30;99.90;;;;;;5078419;28;20032;-80
2021/07/16 02:48:17;;;;;;;18.63;6.37;;;16.30;99.90;;;;;;5104086;28;19943;-80
2021/07/16 02:50:45;;;;;;;19.20;6.13;;;16.20;99.90;;;;;;5092067;28;20035;-79
2021/07/16 02:53:14;;;;;;;16.67;6.22;;;16.30;99.90;;;;;;5096016;28;20405;-79
2021/07/16 02:55:40;;;;;;;18.60;6.47;;;16.30;99.90;;;;;;5104600;28;20039;-79
2021/07/16 02:58:07;;;;;;;24.85;6.20;;;16.30;99.90;;;;;;5107603;28;20476;-80
2021/07/16 03:00:33;;;;;;;18.20;6.28;;;16.30;99.90;;;;;;5104832;28;20593;-79
2021/07/16 03:03:00;;;;;;;23.73;7.07;;;16.30;99.90;;;;;;5091659;28;20032;-82
2021/07/16 03:05:28;;;;;;;20.63;6.35;;;16.30;99.90;;;;;;5103310;28;20040;-82
2021/07/16 03:07:54;;;;;;;16.10;5.88;;;16.30;99.90;;;;;;5102195;28;20040;-81
2021/07/16 03:10:32;;;;;;;17.73;5.82;;;16.30;99.90;;;;;;5111530;28;20050;-80
2021/07/16 03:13:00;;;;;;;17.40;6.25;;;16.30;99.90;;;;;;5106947;28;20046;-80
2021/07/16 03:15:26;;;;;;;16.73;5.93;;;16.30;99.90;;;;;;5108156;28;20055;-79
2021/07/16 03:17:53;;;;;;;17.00;6.18;;;16.30;99.90;;;;;;5084830;28;20092;-80
2021/07/16 03:20:25;;;;;;;18.40;6.32;;;16.30;99.90;;;;;;5111852;28;20509;-80
2021/07/16 03:22:51;;;;;;;16.75;6.85;;;16.30;99.90;;;;;;5098139;28;20043;-80
2021/07/16 03:25:19;;;;;;;16.40;6.60;;;16.30;99.90;;;;;;5108283;28;20032;-81
2021/07/16 03:27:45;;;;;;;24.85;6.50;;;16.30;99.90;;;;;;5103679;28;20487;-79
2021/07/16 03:30:17;;;;;;;21.00;7.40;;;16.30;99.90;;;;;;5111293;28;20043;-80
2021/07/16 03:32:44;;;;;;;18.40;6.18;;;16.30;99.90;;;;;;5104283;28;20027;-80
2021/07/16 03:35:12;;;;;;;20.42;6.20;;;16.30;99.90;;;;;;5106043;28;20028;-79
2021/07/16 03:37:39;;;;;;;16.95;6.20;;;16.30;99.90;;;;;;5086586;28;20032;-80
2021/07/16 03:40:07;;;;;;;20.02;7.30;;;16.30;99.90;;;;;;5103610;28;20047;-80
2021/07/16 03:42:33;;;;;;;18.35;5.90;;;16.30;99.90;;;;;;5105548;28;20373;-80
2021/07/16 03:44:59;;;;;;;18.08;6.47;;;16.30;99.90;;;;;;5110037;28;20057;-80
2021/07/16 03:47:24;;;;;;;19.60;5.93;;;16.30;99.90;;;;;;5102037;28;20039;-80
2021/07/16 03:49:50;;;;;;;;;;;16.30;99.90;;;;;;5089588;28;20043;-79
2021/07/16 03:52:16;;;;;;;20.38;6.18;;;16.30;99.90;;;;;;5106461;28;19915;-79
2021/07/16 03:54:42;;;;;;;21.17;6.70;;;16.30;99.90;;;;;;5111183;28;20468;-80
2021/07/16 03:57:08;;;;;;;18.75;6.43;;;16.30;99.90;;;;;;5083893;28;20044;-80
2021/07/16 03:59:34;;;;;;;;;;;16.30;99.90;;;;;;5098101;28;20157;-81
2021/07/16 04:02:02;;;;;;;20.57;6.73;;;16.30;99.90;;;;;;5103694;28;19915;-80
2021/07/16 04:04:27;;;;;;;22.73;7.10;;;16.30;99.90;;;;;;5107969;28;20056;-81
2021/07/16 04:06:54;;;;;;;20.88;7.50;;;16.30;99.90;;;;;;5111262;28;20040;-80
2021/07/16 04:09:27;;;;;;;18.33;6.78;;;16.30;99.90;;;;;;5073167;28;20031;-80
2021/07/16 04:12:06;;;;;;;19.55;7.47;;;16.30;99.90;;;;;;5106526;28;20044;-80
2021/07/16 04:14:40;;;;;;;20.90;7.00;;;16.30;99.90;;;;;;5081185;28;20043;-81
2021/07/16 04:17:17;;;;;;;17.35;7.50;;;16.30;99.90;;;;;;5099784;28;20039;-82
2021/07/16 04:19:44;;;;;;;19.92;7.68;;;16.30;99.90;;;;;;5111084;28;20035;-81
2021/07/16 04:22:17;;;;;;;18.98;7.32;;;16.30;99.90;;;;;;5109961;28;20044;-82
2021/07/16 04:24:43;;;;;;;29.02;7.25;;;16.30;99.90;;;;;;5103022;28;20487;-80
2021/07/16 04:27:11;;;;;;;21.05;7.13;;;16.30;99.90;;;;;;5097688;28;20036;-81
2021/07/16 04:29:38;;;;;;;26.00;7.00;;;16.30;99.90;;;;;;5111459;28;20031;-81
2021/07/16 04:32:05;;;;;;;24.80;8.02;;;16.40;99.90;;;;;;5107138;28;20093;-81
2021/07/16 04:34:36;;;;;;;20.58;7.95;;;16.40;99.90;;;;;;5099353;28;20039;-81
2021/07/16 04:37:04;;;;;;;24.00;8.30;;;16.40;99.90;;;;;;5110816;28;20097;-83
2021/07/16 04:39:30;;;;;;;24.73;8.05;;;16.40;99.90;;;;;;5111518;28;20036;-83
2021/07/16 04:41:56;;;;;;;24.88;8.45;;;16.40;99.90;;;;;;5099982;28;20071;-83
2021/07/16 04:44:22;;;;;;;18.38;7.20;;;16.40;99.90;;;;;;5100223;28;20056;-83
2021/07/16 04:46:48;;;;;;;;;;;16.50;99.90;;;;;;5094705;28;20043;-82
2021/07/16 04:49:15;;;;;;;25.40;8.55;;;16.40;99.90;;;;;;5100905;28;20240;-82
2021/07/16 04:51:41;;;;;;;25.63;7.53;;;16.40;99.90;;;;;;5112299;28;20047;-81
2021/07/16 04:54:07;;;;;;;20.23;7.85;;;16.50;99.90;;;;;;5087828;28;20040;-82
2021/07/16 04:56:39;;;;;;;21.55;7.82;;;16.50;99.90;;;;;;5073770;28;20043;-81
2021/07/16 04:59:05;;;;;;;17.25;7.43;;;16.50;99.90;;;;;;5109520;28;20055;-81
2021/07/16 05:01:31;;;;;;;;;;;16.50;99.90;;;;;;5094889;28;20043;-82
2021/07/16 05:03:57;;;;;;;23.80;6.75;;;16.50;99.90;;;;;;5112091;28;19916;-82
2021/07/16 05:06:22;;;;;;;;;;;16.50;99.90;;;;;;5114241;28;20411;-81
2021/07/16 05:08:50;;;;;;;24.10;7.18;;;16.50;99.90;;;;;;5109164;28;19915;-81
2021/07/16 05:11:18;;;;;;;21.70;7.28;;;16.50;99.90;;;;;;5085804;28;20495;-81
2021/07/16 05:13:44;;;;;;;17.77;6.90;;;16.60;99.90;;;;;;5093596;28;20476;-81
2021/07/16 05:16:13;;;;;;;24.45;7.72;;;16.60;99.90;;;;;;5090579;28;20419;-81
2021/07/16 05:18:39;;;;;;;24.92;7.95;;;16.60;99.90;;;;;;5086538;28;20039;-81
2021/07/16 05:21:07;;;;;;;18.80;6.97;;;16.70;99.90;;;;;;5112385;28;20052;-81
2021/07/16 05:23:33;;;;;;;18.88;6.78;;;16.70;99.90;;;;;;5102452;28;20065;-81
2021/07/16 05:25:59;;;;;;;21.75;7.95;;;16.80;99.90;;;;;;5089098;28;20035;-81
2021/07/16 05:28:25;;;;;;;20.88;7.25;;;16.70;99.90;;;;;;5114817;28;20070;-81
2021/07/16 05:30:51;;;;;;;22.88;7.05;;;16.70;99.90;;;;;;5113422;28;20453;-80
2021/07/16 05:33:17;;;;;;;29.92;7.40;;;16.80;99.90;;;;;;5110715;28;20078;-80
2021/07/16 05:35:43;;;;;;;;;;;16.80;99.90;;;;;;5073585;28;20043;-80
2021/07/16 05:38:10;;;;;;;23.90;7.18;;;16.70;99.90;;;;;;5112433;28;19951;-80
2021/07/16 05:40:37;;;;;;;19.52;6.80;;;16.80;99.90;;;;;;5103948;28;20469;-81
2021/07/16 05:43:08;;;;;;;22.15;6.72;;;16.90;99.90;;;;;;5089702;28;20115;-80
2021/07/16 05:45:38;;;;;;;21.75;6.90;;;16.80;99.90;;;;;;5093065;28;20104;-81
2021/07/16 05:48:06;;;;;;;23.35;7.85;;;16.80;99.90;;;;;;5107757;28;20480;-81
2021/07/16 05:50:32;;;;;;;18.45;8.10;;;16.90;99.90;;;;;;5111831;28;20480;-81
2021/07/16 05:52:58;;;;;;;19.77;6.32;;;16.90;99.90;;;;;;5113074;28;20112;-81
2021/07/16 05:55:24;;;;;;;22.23;6.97;;;16.90;99.90;;;;;;5082256;28;20488;-81
2021/07/16 05:57:50;;;;;;;20.23;7.55;;;16.90;99.90;;;;;;5095117;28;20119;-81
2021/07/16 06:00:17;;;;;;;22.80;6.80;;;16.90;99.90;;;;;;5090070;28;20131;-80
2021/07/16 06:02:43;;;;;;;20.77;7.80;;;17.00;99.90;;;;;;5107232;28;20035;-81
2021/07/16 06:05:09;;;;;;;15.23;6.90;;;16.90;99.90;;;;;;5104423;28;20400;-81
2021/07/16 06:07:35;;;;;;;21.88;8.35;;;17.00;99.90;;;;;;5111343;28;20436;-81
2021/07/16 06:10:01;;;;;;;17.60;7.18;;;17.00;99.90;;;;;;5059531;28;20040;-81
2021/07/16 06:12:27;;;;;;;24.35;8.13;;;17.00;99.90;;;;;;5052947;28;20052;-79
2021/07/16 06:14:56;;;;;;;21.02;6.93;;;17.10;99.90;;;;;;5111666;28;20044;-81
2021/07/16 06:17:27;;;;;;;21.88;7.78;;;17.10;99.90;;;;;;5090415;28;20043;-81
2021/07/16 06:19:53;;;;;;;20.65;7.18;;;17.10;99.90;;;;;;5099799;28;20111;-81
2021/07/16 06:22:19;;;;;;;18.70;6.18;;;17.10;99.90;;;;;;5064389;28;20104;-82
2021/07/16 06:24:45;;;;;;;24.27;6.97;;;17.10;99.90;;;;;;5091710;28;20119;-81
2021/07/16 06:27:11;;;;;;;;;;;17.20;99.90;;;;;;5108093;28;20380;-82
2021/07/16 06:29:37;;;;;;;21.65;7.00;;;17.10;99.90;;;;;;5084866;28;20379;-81
2021/07/16 06:32:04;;;;;;;23.77;7.70;;;17.20;99.90;;;;;;5073038;28;20039;-81
2021/07/16 06:34:30;;;;;;;29.02;8.70;;;17.20;99.90;;;;;;5107745;28;20060;-81
2021/07/16 06:36:56;;;;;;;24.30;7.35;;;17.30;99.90;;;;;;5092069;28;20031;-80
2021/07/16 06:39:22;;;;;;;;;;;17.40;99.90;;;;;;5102093;28;20038;-80
2021/07/16 06:41:47;;;;;;;24.27;7.55;;;17.40;99.90;;;;;;5103972;28;19923;-80
2021/07/16 06:44:13;;;;;;;;;;;17.40;99.90;;;;;;5096174;28;20084;-80
2021/07/16 06:46:40;;;;;;;21.08;6.32;;;17.40;99.90;;;;;;5088192;28;19995;-80
2021/07/16 06:49:05;;;;;;;;;;;17.50;99.90;;;;;;5102344;28;20032;-80
2021/07/16 06:51:33;;;;;;;26.33;7.65;;;17.50;99.90;;;;;;5076686;28;19922;-79
2021/07/16 06:53:59;;;;;;;24.27;6.50;;;17.60;99.90;;;;;;5104497;28;20127;-81
2021/07/16 06:56:25;;;;;;;23.45;6.65;;;17.60;99.90;;;;;;5097966;28;20110;-81
2021/07/16 06:58:52;;;;;;;21.92;6.97;;;17.60;99.90;;;;;;5067866;28;20545;-81
2021/07/16 07:01:19;;;;;;;20.40;6.68;;;17.60;99.90;;;;;;5087066;28;20043;-81
2021/07/16 07:03:45;;;;;;;26.48;7.50;;;17.60;99.90;;;;;;5090055;28;20039;-81
2021/07/16 07:06:11;;;;;;;;;;;17.70;99.90;;;;;;5074609;28;20040;-81
2021/07/16 07:08:38;;;;;;;22.33;6.93;;;17.60;99.90;;;;;;5097814;28;20273;-81
2021/07/16 07:11:04;;;;;;;24.17;6.40;;;17.70;99.90;;;;;;5102524;28;20092;-80
2021/07/16 07:13:30;;;;;;;23.80;7.93;;;17.80;99.90;;;;;;5107461;28;20043;-83
2021/07/16 07:15:57;;;;;;;24.50;7.55;;;17.80;99.90;;;;;;5101887;28;20048;-83
2021/07/16 07:18:23;;;;;;;;;;;18.00;99.90;;;;;;5100619;28;20092;-84
2021/07/16 07:20:49;;;;;;;22.80;7.22;;;18.00;99.90;;;;;;5101102;28;19920;-84
2021/07/16 07:23:16;;;;;;;21.42;7.03;;;18.20;99.90;;;;;;5097808;28;20098;-84
2021/07/16 07:25:42;;;;;;;;;;;18.20;99.90;;;;;;5100450;28;20590;-85
2021/07/16 07:28:08;;;;;;;19.38;7.05;;;18.30;99.90;;;;;;5098713;28;19927;-84
2021/07/16 07:30:33;;;;;;;;;;;18.40;99.90;;;;;;5089241;28;20408;-84
2021/07/16 07:32:59;;;;;;;18.27;7.07;;;18.40;99.90;;;;;;5103908;28;19916;-83
2021/07/16 07:35:25;;;;;;;;;;;18.50;99.90;;;;;;5072899;28;20421;-83
2021/07/16 07:37:51;;;;;;;21.33;7.47;;;18.50;99.90;;;;;;5109080;28;20022;-83
2021/07/16 07:40:18;;;;;;;23.40;7.28;;;18.50;99.90;;;;;;5107576;28;20127;-84
2021/07/16 07:42:44;;;;;;;17.33;6.70;;;18.60;99.90;;;;;;5095308;28;20487;-83
2021/07/16 07:45:11;;;;;;;21.25;7.85;;;18.60;99.90;;;;;;5101313;28;20032;-83
2021/07/16 07:47:37;;;;;;;22.88;7.80;;;18.50;99.90;;;;;;5104020;28;20230;-83
2021/07/16 07:50:05;;;;;;;;;;;18.50;99.90;;;;;;5088162;28;20115;-84
2021/07/16 07:52:30;;;;;;;;;;;18.40;99.90;;;;;;5099382;28;19916;-83
2021/07/16 07:54:56;;;;;;;22.80;6.70;;;18.40;99.90;;;;;;5105857;28;19939;-83
2021/07/16 07:57:22;;;;;;;;;;;18.40;99.90;;;;;;5103266;28;20052;-84
2021/07/16 07:59:48;;;;;;;20.02;6.93;;;18.40;99.90;;;;;;5104635;28;20330;-84
2021/07/16 08:02:14;;;;;;;35.58;7.65;;;18.40;99.90;;;;;;5070726;28;20047;-83
2021/07/16 08:04:41;;;;;;;;;;;18.50;99.90;;;;;;5089332;28;20473;-84
2021/07/16 08:07:07;;;;;;;20.20;7.07;;;18.50;99.90;;;;;;5106567;28;19981;-80
2021/07/16 08:09:33;;;;;;;19.95;7.35;;;18.50;99.90;;;;;;5098049;28;20032;-84
2021/07/16 08:12:01;;;;;;;;;;;18.50;99.90;;;;;;5082800;28;20228;-82
2021/07/16 08:14:27;;;;;;;17.25;6.88;;;18.50;99.90;;;;;;5107623;28;19919;-82
2021/07/16 08:16:53;;;;;;;24.65;7.57;;;18.50;99.90;;;;;;5110320;28;20506;-82
2021/07/16 08:19:19;;;;;;;22.10;7.25;;;18.60;99.90;;;;;;5105352;28;20103;-85
2021/07/16 08:21:52;;;;;;;;;;;18.50;99.90;;;;;;5107072;28;20135;-82
2021/07/16 08:24:19;;;;;;;21.17;7.70;;;18.60;99.90;;;;;;5102473;28;19923;-83
2021/07/16 08:26:46;;;;;;;24.05;7.97;;;18.60;99.90;;;;;;5079938;28;20469;-82
2021/07/16 08:29:13;;;;;;;19.48;6.90;;;18.60;99.90;;;;;;5100348;28;20114;-84
2021/07/16 08:31:39;;;;;;;19.88;6.63;;;18.60;99.90;;;;;;5094760;28;20031;-83
2021/07/16 08:34:07;;;;;;;26.63;8.23;;;18.60;99.90;;;;;;5082156;28;20032;-82
2021/07/16 08:36:34;;;;;;;21.77;7.30;;;18.60;99.90;;;;;;5085798;28;20054;-82
2021/07/16 08:39:00;;;;;;;22.42;7.72;;;18.60;99.90;;;;;;5102789;28;20069;-81
2021/07/16 08:41:26;;;;;;;;;;;18.50;99.90;;;;;;5104953;28;20525;-82
2021/07/16 08:43:52;;;;;;;17.83;6.18;;;18.50;99.90;;;;;;5099234;28;19916;-81
2021/07/16 08:46:19;;;;;;;20.15;6.93;;;18.40;99.90;;;;;;5106451;27;20046;-81
2021/07/16 08:48:48;;;;;;;17.38;7.18;;;18.50;99.90;;;;;;5102618;28;20629;-81
2021/07/16 08:51:22;;;;;;;24.35;7.82;;;18.50;99.90;;;;;;5103718;28;20067;-82
2021/07/16 08:53:52;;;;;;;27.10;7.50;;;18.50;99.90;;;;;;5087253;28;20180;-81
2021/07/16 08:56:20;;;;;;;22.67;7.05;;;18.60;99.90;;;;;;5089629;28;20074;-82
2021/07/16 08:58:46;;;;;;;23.63;8.43;;;18.70;99.90;;;;;;5087358;28;20115;-81
2021/07/16 09:01:12;;;;;;;;;;;18.90;99.90;;;;;;5114521;28;20532;-81
2021/07/16 09:04:05;;;;;;;20.35;7.43;;;19.00;99.90;;;;;;5102781;28;19930;-82
2021/07/16 09:06:54;;;;;;;22.98;7.90;;;19.10;99.90;;;;;;5103889;28;20044;-82
2021/07/16 09:09:25;;;;;;;24.85;7.30;;;19.10;99.90;;;;;;5085962;28;20101;-82
2021/07/16 09:11:58;;;;;;;22.60;7.70;;;19.10;99.90;;;;;;5101103;28;20115;-82
2021/07/16 09:14:30;;;;;;;20.67;7.50;;;19.20;99.90;;;;;;5111033;28;20034;-82
2021/07/16 09:17:01;;;;;;;24.10;7.82;;;19.20;99.90;;;;;;5110969;27;20037;-82
2021/07/16 09:19:31;;;;;;;21.08;7.43;;;19.30;99.90;;;;;;5103997;28;20040;-81
2021/07/16 09:22:10;;;;;;;25.83;8.13;;;19.30;99.90;;;;;;5090688;28;20105;-81
2021/07/16 09:24:37;;;;;;;22.77;7.68;;;19.30;99.90;;;;;;5101777;28;20040;-81
2021/07/16 09:27:40;;;;;;;24.98;7.20;;;19.30;99.90;;;;;;5089015;28;20028;-80
2021/07/16 09:30:26;;;;;;;21.67;8.60;;;19.30;99.90;;;;;;5093621;28;20076;-81
2021/07/16 09:33:05;;;;;;;15.63;7.05;;;19.30;99.90;;;;;;5104151;28;20036;-81
2021/07/16 09:35:40;;;;;;;22.38;7.55;;;19.30;99.90;;;;;;5103128;28;20062;-81
2021/07/16 09:38:11;;;;;;;17.67;7.68;;;19.30;99.90;;;;;;5084019;28;20212;-81
2021/07/16 09:40:40;;;;;;;19.35;7.47;;;19.30;99.90;;;;;;5105000;28;20047;-84
2021/07/16 09:43:16;;;;;;;24.38;8.50;;;19.40;99.90;;;;;;5102849;28;20499;-82
2021/07/16 09:45:51;;;;;;;25.65;7.88;;;19.40;99.90;;;;;;5105114;28;20184;-79
2021/07/16 09:48:37;;;;;;;22.20;7.90;;;19.50;99.90;;;;;;5105342;28;20039;-82
2021/07/16 09:51:29;;;;;;;16.55;7.13;;;19.60;99.90;;;;;;5109102;28;20046;-80
2021/07/16 09:54:06;;;;;;;25.90;7.35;;;19.70;99.90;;;;;;5086853;28;20096;-82
2021/07/16 09:56:36;;;;;;;23.25;7.95;;;19.70;99.90;;;;;;5105881;28;20522;-82
2021/07/16 09:59:07;;;;;;;14.90;6.75;;;19.80;99.90;;;;;;5084043;28;20046;-83
2021/07/16 10:01:41;;;;;;;13.90;8.02;;;19.90;99.90;;;;;;5084931;28;20813;-82
2021/07/16 10:04:09;;;;;;;15.95;7.55;;;19.90;99.90;;;;;;5114217;28;20035;-79
2021/07/16 10:06:35;;;;;;;20.65;7.43;;;19.90;99.90;;;;;;5083245;28;20477;-80
2021/07/16 10:09:02;;;;;;;19.55;7.57;;;20.00;99.90;;;;;;5079286;28;20032;-82
2021/07/16 10:11:29;;;;;;;18.30;7.45;;;20.10;99.90;;;;;;5099363;28;20064;-81
2021/07/16 10:13:56;;;;;;;16.98;7.03;;;20.20;99.90;;;;;;5077718;28;20489;-81
2021/07/16 10:16:22;;;;;;;18.73;8.02;;;20.20;99.90;;;;;;5102618;28;20039;-82
2021/07/16 10:18:53;;;;;;;17.27;8.15;;;20.30;99.90;;;;;;5102580;28;20305;-83
2021/07/16 10:21:22;;;;;;;19.65;7.93;;;20.30;99.90;;;;;;5098955;28;20104;-81
2021/07/16 10:23:54;;;;;;;21.15;7.90;;;20.40;99.90;;;;;;5085975;28;20062;-80
2021/07/16 10:26:22;;;;;;;19.95;7.60;;;20.40;99.90;;;;;;5098180;28;20405;-80
2021/07/16 10:28:47;;;;;;;20.23;7.72;;;20.40;99.90;;;;;;5097896;28;20036;-79
2021/07/16 10:31:37;;;;;;;17.42;7.72;;;20.30;99.90;;;;;;5097247;28;20039;-79
2021/07/16 10:34:10;;;;;;;20.38;8.93;;;20.20;99.90;;;;;;5102226;28;20377;-82
2021/07/16 10:36:44;;;;;;;23.10;7.88;;;20.10;99.90;;;;;;5104618;28;20066;-80
2021/07/16 10:39:42;;;;;;;17.92;7.30;;;20.10;99.90;;;;;;5098315;28;20060;-80
2021/07/16 10:42:25;;;;;;;23.95;8.77;;;20.20;99.90;;;;;;5088181;28;20055;-81
2021/07/16 10:44:53;;;;;;;22.52;8.18;;;20.10;99.90;;;;;;5104177;28;20050;-81
2021/07/16 10:47:49;;;;;;;18.05;7.38;;;20.10;99.90;;;;;;5102938;28;20044;-79
2021/07/16 10:50:33;;;;;;;21.33;8.63;;;20.20;99.90;;;;;;5102662;28;20472;-80
2021/07/16 10:52:59;;;;;;;19.10;8.35;;;20.20;99.90;;;;;;5102863;28;20096;-82
2021/07/16 10:55:36;;;;;;;18.13;7.82;;;20.10;99.90;;;;;;5084199;28;20431;-80
2021/07/16 10:58:22;;;;;;;18.80;8.20;;;20.10;99.90;;;;;;5098789;28;20032;-81
2021/07/16 11:00:59;;;;;;;19.58;7.65;;;20.10;99.90;;;;;;5092634;28;20047;-81
2021/07/16 11:03:40;;;;;;;19.75;8.50;;;20.20;99.90;;;;;;5105138;28;20104;-84
2021/07/16 11:06:07;;;;;;;21.05;9.73;;;20.30;99.90;;;;;;5103234;28;20110;-80
2021/07/16 11:08:39;;;;;;;20.88;8.85;;;20.40;99.90;;;;;;5106389;28;20038;-80
2021/07/16 11:11:21;;;;;;;20.38;8.07;;;20.40;99.90;;;;;;5107007;28;20044;-80
2021/07/16 11:13:55;;;;;;;19.08;8.43;;;20.40;99.90;;;;;;5096161;28;20067;-80
2021/07/16 11:16:25;;;;;;;21.30;8.65;;;20.50;99.90;;;;;;5101209;28;20104;-79
2021/07/16 11:18:55;;;;;;;23.20;8.90;;;20.50;99.90;;;;;;5103944;28;20044;-82
2021/07/16 11:21:42;;;;;;;20.63;8.85;;;20.50;99.90;;;;;;5101119;28;20048;-83
2021/07/16 11:26:47;;;;;;;18.05;7.80;;;20.80;99.90;;;;;;5104268;28;20051;-80
2021/07/16 11:29:13;;;;;;;20.92;8.70;;;21.00;99.90;;;;;;5101841;28;20468;-82
2021/07/16 11:31:40;;;;;;;24.17;8.95;;;21.10;99.90;;;;;;5103727;28;20476;-84
2021/07/16 11:34:10;;;;;;;19.73;8.48;;;21.20;99.90;;;;;;5096969;28;20476;-79
2021/07/16 11:36:52;;;;;;;22.73;8.23;;;21.20;99.90;;;;;;5083730;28;20028;-81
2021/07/16 11:39:33;;;;;;;15.05;7.85;;;21.30;99.90;;;;;;5084386;28;20040;-81
2021/07/16 11:42:00;;;;;;;17.83;8.02;;;21.50;99.90;;;;;;5078830;28;20036;-80
2021/07/16 11:44:47;;;;;;;18.25;8.02;;;21.60;99.90;;;;;;5085273;28;20027;-81
2021/07/16 11:47:14;;;;;;;20.45;8.00;;;21.70;99.90;;;;;;5100142;28;20027;-79
2021/07/16 11:49:46;;;;;;;16.10;8.05;;;21.50;99.90;;;;;;5100613;28;20536;-81
2021/07/16 11:52:25;;;;;;;21.33;8.85;;;21.50;99.90;;;;;;5102003;28;20040;-82
2021/07/16 11:54:52;;;;;;;20.33;8.52;;;21.50;99.90;;;;;;5097991;28;20089;-82
2021/07/16 11:57:19;;;;;;;27.42;9.40;;;21.60;99.90;;;;;;5099169;28;20439;-82
2021/07/16 11:59:47;;;;;;;23.25;8.90;;;21.60;99.90;;;;;;5110724;28;20051;-83
2021/07/16 12:02:16;;;;;;;27.77;9.23;;;21.60;99.90;;;;;;5109346;28;20296;-81
2021/07/16 12:04:44;;;;;;;22.70;8.50;;;21.70;99.90;;;;;;5095974;28;20032;-83
2021/07/16 12:07:11;;;;;;;22.00;8.45;;;21.80;99.90;;;;;;5107524;28;20067;-80
2021/07/16 12:09:45;;;;;;;22.73;8.13;;;21.90;99.90;;;;;;5111367;28;20059;-81
2021/07/16 12:12:13;;;;;;;20.85;9.07;;;22.10;99.90;;;;;;5109947;28;20448;-81
2021/07/16 12:14:59;;;;;;;20.67;8.45;;;22.10;99.90;;;;;;5104279;28;20039;-82
2021/07/16 12:17:30;;;;;;;25.25;9.75;;;22.10;99.90;;;;;;5107939;28;20032;-81
2021/07/16 12:20:00;;;;;;;19.63;8.35;;;22.20;99.90;;;;;;5093662;28;20047;-83
2021/07/16 12:22:28;;;;;;;18.83;8.80;;;22.10;99.90;;;;;;5110642;27;20060;-81
2021/07/16 12:24:55;;;;;;;20.13;8.75;;;22.00;99.90;;;;;;5108687;28;20040;-81
2021/07/16 12:27:22;;;;;;;30.23;10.00;;;21.90;99.90;;;;;;5078716;28;20031;-80
2021/07/16 12:30:07;;;;;;;19.73;8.30;;;22.00;99.90;;;;;;5104506;28;20031;-83
2021/07/16 12:32:43;;;;;;;17.73;8.35;;;22.00;99.90;;;;;;5110216;27;20032;-81
2021/07/16 12:35:14;;;;;;;;;;;22.00;99.90;;;;;;5102909;27;20414;-81
2021/07/16 12:37:42;;;;;;;20.90;8.90;;;21.80;99.90;;;;;;5102517;28;19942;-82
2021/07/16 12:40:08;;;;;;;17.88;8.70;;;21.70;99.90;;;;;;5095292;28;20054;-80
2021/07/16 12:42:37;;;;;;;22.48;9.70;;;21.70;99.90;;;;;;5106487;28;20043;-79
2021/07/16 12:45:10;;;;;;;19.23;8.57;;;21.70;99.90;;;;;;5102741;28;20042;-82
2021/07/16 12:47:55;;;;;;;20.63;9.35;;;21.80;99.90;;;;;;5105164;28;20050;-81
2021/07/16 12:50:24;;;;;;;21.15;9.20;;;21.80;99.90;;;;;;5109024;28;20412;-81
2021/07/16 12:52:54;;;;;;;22.02;10.50;;;21.90;99.90;;;;;;5083575;28;20035;-82
2021/07/16 12:55:22;;;;;;;21.10;8.70;;;21.80;99.90;;;;;;5107104;28;20055;-81
2021/07/16 12:57:48;;;;;;;24.00;9.02;;;21.80;99.90;;;;;;5111396;28;20024;-80